Bronson, Florida
Current Conditions -  °F | °C
As of 10:53 AM on Thursday 23 Oct 2014 (Local Time) from KGNV Reporting Station
Clear Clear  
Wind Chill: 69°   Ceiling: Unl
Heat Index: 69°   Visibility: 10mi
Dew Point: 50°   Wind: 9mph
Humidity: 51%   Direction: 30°NNE
Pressure: 30.07"   Gusts: NA
Location:  29.45°N, 82.64°W
Report Text: KGNV 231453Z 03008KT 10SM CLR 21/10 A3007 RMK AO2 SLP183 T02060100 51013
Loading
Personal Weather Stations






























Interactive Weather Map
Tropical Storm Tracking
New forecast layout! Learn more

10-Day Weather Forecast

Advertisements
Track Severe Weather on mobile